PWSweather.com
Personal Weather Stations
Station Observations
KNHFREMO3
Fremont, Fremont, NH 03044

FremontFremont, NH 03044

Lat: 42.964965, Lon: -71.118193

Elevation: 171

Station Type: Davis Vantage Pro2

Latest ConditionsUpdated 11:15:00 PM EST Thursday, Dec 13, 2018
Currently Today's Max Today's Min Today's Average
Temperature 25.5°F-3.6°C 28.1°F-2.2°C 5.6°F-14.7°C 18.0°F-7.8°C
Dew Point 15.7°F-9.1°C 15.9°F-8.9°C -0.7°F-18.2°C 8.0°F-13.3°C
Winds Calm Calm 1.0 mph -1.6 kmh - - 0.1 mph 0.2 kmh
Wind Gusts 1.0 mph1.6 kmh 6.0 mph9.7 kmh - -
Humidity 66% 76% 52% 65%
Pressure 30.59 in1035.9 mb 30.59 in1035.9 mb 30.38 in1028.8 mb -
Hour Temp Dew Point Humidity Winds Wind Gusts Pressure Precip Precip Rate Daily Precip Total
11:15 PM 25.5°F-3.6°C 15.7°F-9.1°C 66% Calm Calm 1.0 mph1.6 kmh 30.59 in1035.9 mb 0.00 in0.0 mm 0.00 in0.0 mm 0.00 in0.0 mm
11:00 PM 25.4°F-3.7°C 15.3°F-9.3°C 65% Calm Calm -- 30.59 in1035.9 mb 0.00 in0.0 mm 0.00 in0.0 mm 0.00 in0.0 mm
10:45 PM 25.4°F-3.7°C 15.6°F-9.1°C 66% Calm Calm 2.0 mph3.2 kmh 30.59 in1035.9 mb 0.00 in0.0 mm 0.00 in0.0 mm 0.00 in0.0 mm
10:30 PM 25.3°F-3.7°C 15.9°F-8.9°C 67% Calm Calm -- 30.59 in1035.9 mb 0.00 in0.0 mm 0.00 in0.0 mm 0.00 in0.0 mm
10:15 PM 25.2°F-3.8°C 15.4°F-9.2°C 66% Calm Calm 1.0 mph1.6 kmh 30.59 in1035.9 mb 0.00 in0.0 mm 0.00 in0.0 mm 0.00 in0.0 mm
10:00 PM 25.3°F-3.7°C 15.5°F-9.2°C 66% Calm Calm -- 30.58 in1035.6 mb 0.00 in0.0 mm 0.00 in0.0 mm 0.00 in0.0 mm
09:45 PM 25.5°F-3.6°C 15.7°F-9.1°C 66% Calm Calm -- 30.58 in1035.6 mb 0.00 in0.0 mm 0.00 in0.0 mm 0.00 in0.0 mm
09:30 PM 25.6°F-3.6°C 15.5°F-9.2°C 65% Calm Calm -- 30.58 in1035.6 mb 0.00 in0.0 mm 0.00 in0.0 mm 0.00 in0.0 mm
09:15 PM 25.6°F-3.6°C 15.5°F-9.2°C 65% Calm Calm -- 30.59 in1035.9 mb 0.00 in0.0 mm 0.00 in0.0 mm 0.00 in0.0 mm
09:00 PM 25.7°F-3.5°C 15.6°F-9.1°C 65% Calm Calm -- 30.59 in1035.9 mb 0.00 in0.0 mm 0.00 in0.0 mm 0.00 in0.0 mm
08:45 PM 25.7°F-3.5°C 15.6°F-9.1°C 65% Calm Calm -- 30.59 in1035.9 mb 0.00 in0.0 mm 0.00 in0.0 mm 0.00 in0.0 mm
08:30 PM 25.6°F-3.6°C 15.5°F-9.2°C 65% Calm Calm -- 30.59 in1035.9 mb 0.00 in0.0 mm 0.00 in0.0 mm 0.00 in0.0 mm
08:15 PM 25.6°F-3.6°C 15.5°F-9.2°C 65% Calm Calm -- 30.59 in1035.9 mb 0.00 in0.0 mm 0.00 in0.0 mm 0.00 in0.0 mm
08:00 PM 25.6°F-3.6°C 15.5°F-9.2°C 65% Calm Calm -- 30.59 in1035.9 mb 0.00 in0.0 mm 0.00 in0.0 mm 0.00 in0.0 mm
07:45 PM 25.5°F-3.6°C 15.7°F-9.1°C 66% Calm Calm -- 30.59 in1035.9 mb 0.00 in0.0 mm 0.00 in0.0 mm 0.00 in0.0 mm
07:30 PM 25.4°F-3.7°C 15.3°F-9.3°C 65% Calm Calm -- 30.59 in1035.9 mb 0.00 in0.0 mm 0.00 in0.0 mm 0.00 in0.0 mm
07:15 PM 25.4°F-3.7°C 15.3°F-9.3°C 65% Calm Calm -- 30.58 in1035.6 mb 0.00 in0.0 mm 0.00 in0.0 mm 0.00 in0.0 mm
07:00 PM 25.3°F-3.7°C 15.2°F-9.3°C 65% Calm Calm -- 30.58 in1035.6 mb 0.00 in0.0 mm 0.00 in0.0 mm 0.00 in0.0 mm
06:45 PM 25.3°F-3.7°C 14.8°F-9.6°C 64% Calm Calm -- 30.59 in1035.9 mb 0.00 in0.0 mm 0.00 in0.0 mm 0.00 in0.0 mm
06:30 PM 25.4°F-3.7°C 14.9°F-9.5°C 64% Calm Calm -- 30.58 in1035.6 mb 0.00 in0.0 mm 0.00 in0.0 mm 0.00 in0.0 mm
06:15 PM 25.7°F-3.5°C 14.8°F-9.6°C 63% Calm Calm -- 30.58 in1035.6 mb 0.00 in0.0 mm 0.00 in0.0 mm 0.00 in0.0 mm
06:00 PM 25.7°F-3.5°C 14.8°F-9.6°C 63% Calm Calm -- 30.58 in1035.6 mb 0.00 in0.0 mm 0.00 in0.0 mm 0.00 in0.0 mm
05:45 PM 25.8°F-3.4°C 14.9°F-9.5°C 63% Calm Calm -- 30.58 in1035.6 mb 0.00 in0.0 mm 0.00 in0.0 mm 0.00 in0.0 mm
05:30 PM 25.8°F-3.4°C 14.9°F-9.5°C 63% Calm Calm -- 30.57 in1035.2 mb 0.00 in0.0 mm 0.00 in0.0 mm 0.00 in0.0 mm
05:15 PM 26.0°F-3.3°C 14.8°F-9.6°C 62% Calm Calm -- 30.58 in1035.6 mb 0.00 in0.0 mm 0.00 in0.0 mm 0.00 in0.0 mm
05:00 PM 26.1°F-3.3°C 14.8°F-9.6°C 62% Calm Calm -- 30.57 in1035.2 mb 0.00 in0.0 mm 0.00 in0.0 mm 0.00 in0.0 mm
04:45 PM 26.5°F-3.1°C 14.5°F-9.7°C 60% Calm Calm -- 30.57 in1035.2 mb 0.00 in0.0 mm 0.00 in0.0 mm 0.00 in0.0 mm
04:30 PM 27.0°F-2.8°C 14.9°F-9.5°C 60% Calm Calm -- 30.56 in1034.9 mb 0.00 in0.0 mm 0.00 in0.0 mm 0.00 in0.0 mm
04:15 PM 27.5°F-2.5°C 14.6°F-9.7°C 58% Calm Calm -- 30.56 in1034.9 mb 0.00 in0.0 mm 0.00 in0.0 mm 0.00 in0.0 mm
04:00 PM 27.9°F-2.3°C 14.6°F-9.7°C 57% Calm Calm -- 30.55 in1034.5 mb 0.00 in0.0 mm 0.00 in0.0 mm 0.00 in0.0 mm
03:45 PM 28.1°F-2.2°C 14.8°F-9.6°C 57% Calm Calm -- 30.56 in1034.9 mb 0.00 in0.0 mm 0.00 in0.0 mm 0.00 in0.0 mm
03:30 PM 28.0°F-2.2°C 14.3°F-9.8°C 56% Calm Calm 1.0 mph1.6 kmh 30.56 in1034.9 mb 0.00 in0.0 mm 0.00 in0.0 mm 0.00 in0.0 mm
03:15 PM 28.0°F-2.2°C 14.3°F-9.8°C 56% Calm Calm 2.0 mph3.2 kmh 30.55 in1034.5 mb 0.00 in0.0 mm 0.00 in0.0 mm 0.00 in0.0 mm
03:00 PM 27.7°F-2.4°C 13.6°F-10.2°C 55% Calm Calm 1.0 mph1.6 kmh 30.55 in1034.5 mb 0.00 in0.0 mm 0.00 in0.0 mm 0.00 in0.0 mm
02:45 PM 27.3°F-2.6°C 13.2°F-10.4°C 55% Calm Calm 1.0 mph1.6 kmh 30.55 in1034.5 mb 0.00 in0.0 mm 0.00 in0.0 mm 0.00 in0.0 mm
02:30 PM 27.2°F-2.7°C 13.1°F-10.5°C 55% Calm Calm 1.0 mph1.6 kmh 30.55 in1034.5 mb 0.00 in0.0 mm 0.00 in0.0 mm 0.00 in0.0 mm
02:15 PM 27.1°F-2.7°C 13.1°F-10.5°C 55% Calm Calm 1.0 mph1.6 kmh 30.55 in1034.5 mb 0.00 in0.0 mm 0.00 in0.0 mm 0.00 in0.0 mm
02:00 PM 26.8°F-2.9°C 12.4°F-10.9°C 54% Calm Calm 1.0 mph1.6 kmh 30.55 in1034.5 mb 0.00 in0.0 mm 0.00 in0.0 mm 0.00 in0.0 mm
01:45 PM 26.5°F-3.1°C 12.1°F-11.1°C 54% 1.0 mph E1.6 kmh E 3.0 mph4.8 kmh 30.55 in1034.5 mb 0.00 in0.0 mm 0.00 in0.0 mm 0.00 in0.0 mm
01:30 PM 26.4°F-3.1°C 11.6°F-11.3°C 53% Calm Calm 2.0 mph3.2 kmh 30.55 in1034.5 mb 0.00 in0.0 mm 0.00 in0.0 mm 0.00 in0.0 mm
01:15 PM 26.3°F-3.2°C 11.9°F-11.2°C 54% 1.0 mph E1.6 kmh E 3.0 mph4.8 kmh 30.55 in1034.5 mb 0.00 in0.0 mm 0.00 in0.0 mm 0.00 in0.0 mm
01:00 PM 25.8°F-3.4°C 11.8°F-11.2°C 55% Calm Calm 2.0 mph3.2 kmh 30.55 in1034.5 mb 0.00 in0.0 mm 0.00 in0.0 mm 0.00 in0.0 mm
12:45 PM 25.6°F-3.6°C 11.7°F-11.3°C 55% 1.0 mph ESE1.6 kmh ESE 3.0 mph4.8 kmh 30.56 in1034.9 mb 0.00 in0.0 mm 0.00 in0.0 mm 0.00 in0.0 mm
12:30 PM 25.6°F-3.6°C 10.4°F-12.0°C 52% Calm Calm 3.0 mph4.8 kmh 30.56 in1034.9 mb 0.00 in0.0 mm 0.00 in0.0 mm 0.00 in0.0 mm
12:15 PM 24.8°F-4.0°C 10.5°F-11.9°C 54% 1.0 mph ENE1.6 kmh ENE 2.0 mph3.2 kmh 30.56 in1034.9 mb 0.00 in0.0 mm 0.00 in0.0 mm 0.00 in0.0 mm
12:00 PM 24.0°F-4.4°C 9.7°F-12.4°C 54% Calm Calm 2.0 mph3.2 kmh 30.56 in1034.9 mb 0.00 in0.0 mm 0.00 in0.0 mm 0.00 in0.0 mm
11:45 AM 23.3°F-4.8°C 9.5°F-12.5°C 55% Calm Calm 2.0 mph3.2 kmh 30.56 in1034.9 mb 0.00 in0.0 mm 0.00 in0.0 mm 0.00 in0.0 mm
11:30 AM 22.7°F-5.2°C 8.1°F-13.3°C 53% Calm Calm 2.0 mph3.2 kmh 30.56 in1034.9 mb 0.00 in0.0 mm 0.00 in0.0 mm 0.00 in0.0 mm
11:15 AM 22.4°F-5.3°C 7.8°F-13.4°C 53% Calm Calm 2.0 mph3.2 kmh 30.56 in1034.9 mb 0.00 in0.0 mm 0.00 in0.0 mm 0.00 in0.0 mm
11:00 AM 22.1°F-5.5°C 7.6°F-13.6°C 53% Calm Calm 1.0 mph1.6 kmh 30.56 in1034.9 mb 0.00 in0.0 mm 0.00 in0.0 mm 0.00 in0.0 mm
10:45 AM 21.9°F-5.6°C 6.9°F-13.9°C 52% 1.0 mph E1.6 kmh E 2.0 mph3.2 kmh 30.56 in1034.9 mb 0.00 in0.0 mm 0.00 in0.0 mm 0.00 in0.0 mm
10:30 AM 20.6°F-6.3°C 5.7°F-14.6°C 52% 1.0 mph NW1.6 kmh NW 6.0 mph9.7 kmh 30.57 in1035.2 mb 0.00 in0.0 mm 0.00 in0.0 mm 0.00 in0.0 mm
10:15 AM 18.7°F-7.4°C 4.8°F-15.1°C 54% Calm Calm 2.0 mph3.2 kmh 30.57 in1035.2 mb 0.00 in0.0 mm 0.00 in0.0 mm 0.00 in0.0 mm
10:00 AM 18.0°F-7.8°C 5.3°F-14.8°C 57% Calm Calm 2.0 mph3.2 kmh 30.57 in1035.2 mb 0.00 in0.0 mm 0.00 in0.0 mm 0.00 in0.0 mm
09:45 AM 17.5°F-8.1°C 4.5°F-15.3°C 56% Calm Calm 3.0 mph4.8 kmh 30.57 in1035.2 mb 0.00 in0.0 mm 0.00 in0.0 mm 0.00 in0.0 mm
09:30 AM 16.7°F-8.5°C 4.5°F-15.3°C 58% Calm Calm 2.0 mph3.2 kmh 30.56 in1034.9 mb 0.00 in0.0 mm 0.00 in0.0 mm 0.00 in0.0 mm
09:15 AM 14.9°F-9.5°C 5.2°F-14.9°C 65% 1.0 mph NNW1.6 kmh NNW 4.0 mph6.4 kmh 30.57 in1035.2 mb 0.00 in0.0 mm 0.00 in0.0 mm 0.00 in0.0 mm
09:00 AM 12.8°F-10.7°C 4.9°F-15.1°C 70% 1.0 mph WNW1.6 kmh WNW 3.0 mph4.8 kmh 30.56 in1034.9 mb 0.00 in0.0 mm 0.00 in0.0 mm 0.00 in0.0 mm
08:45 AM 11.0°F-11.7°C 4.0°F-15.6°C 73% Calm Calm 1.0 mph1.6 kmh 30.55 in1034.5 mb 0.00 in0.0 mm 0.00 in0.0 mm 0.00 in0.0 mm
08:30 AM 9.8°F-12.3°C 3.5°F-15.8°C 75% Calm Calm -- 30.56 in1034.9 mb 0.00 in0.0 mm 0.00 in0.0 mm 0.00 in0.0 mm
08:15 AM 8.5°F-13.1°C 2.5°F-16.4°C 76% Calm Calm 1.0 mph1.6 kmh 30.55 in1034.5 mb 0.00 in0.0 mm 0.00 in0.0 mm 0.00 in0.0 mm
08:00 AM 7.3°F-13.7°C 1.3°F-17.1°C 76% Calm Calm 1.0 mph1.6 kmh 30.55 in1034.5 mb 0.00 in0.0 mm 0.00 in0.0 mm 0.00 in0.0 mm
07:45 AM 6.4°F-14.2°C 0.4°F-17.6°C 76% Calm Calm -- 30.54 in1034.2 mb 0.00 in0.0 mm 0.00 in0.0 mm 0.00 in0.0 mm
07:30 AM 6.0°F-14.4°C -0.2°F-17.9°C 75% Calm Calm -- 30.54 in1034.2 mb 0.00 in0.0 mm 0.00 in0.0 mm 0.00 in0.0 mm
07:15 AM 6.0°F-14.4°C -0.2°F-17.9°C 75% Calm Calm -- 30.53 in1033.9 mb 0.00 in0.0 mm 0.00 in0.0 mm 0.00 in0.0 mm
07:00 AM 6.1°F-14.4°C -0.1°F-17.8°C 75% Calm Calm -- 30.52 in1033.5 mb 0.00 in0.0 mm 0.00 in0.0 mm 0.00 in0.0 mm
06:45 AM 6.2°F-14.3°C 0.0°F-17.8°C 75% Calm Calm -- 30.52 in1033.5 mb 0.00 in0.0 mm 0.00 in0.0 mm 0.00 in0.0 mm
06:30 AM 6.2°F-14.3°C 0.0°F-17.8°C 75% Calm Calm -- 30.51 in1033.2 mb 0.00 in0.0 mm 0.00 in0.0 mm 0.00 in0.0 mm
06:15 AM 6.2°F-14.3°C 0.0°F-17.8°C 75% Calm Calm 1.0 mph1.6 kmh 30.50 in1032.8 mb 0.00 in0.0 mm 0.00 in0.0 mm 0.00 in0.0 mm
06:00 AM 6.2°F-14.3°C 0.0°F-17.8°C 75% Calm Calm -- 30.49 in1032.5 mb 0.00 in0.0 mm 0.00 in0.0 mm 0.00 in0.0 mm
05:45 AM 6.3°F-14.3°C -0.2°F-17.9°C 74% Calm Calm -- 30.49 in1032.5 mb 0.00 in0.0 mm 0.00 in0.0 mm 0.00 in0.0 mm
05:30 AM 6.4°F-14.2°C 0.2°F-17.7°C 75% Calm Calm -- 30.49 in1032.5 mb 0.00 in0.0 mm 0.00 in0.0 mm 0.00 in0.0 mm
05:15 AM 6.5°F-14.2°C 0.3°F-17.6°C 75% Calm Calm 1.0 mph1.6 kmh 30.48 in1032.2 mb 0.00 in0.0 mm 0.00 in0.0 mm 0.00 in0.0 mm
05:00 AM 6.4°F-14.2°C -0.1°F-17.8°C 74% Calm Calm -- 30.48 in1032.2 mb 0.00 in0.0 mm 0.00 in0.0 mm 0.00 in0.0 mm
04:45 AM 6.4°F-14.2°C 0.2°F-17.7°C 75% Calm Calm -- 30.47 in1031.8 mb 0.00 in0.0 mm 0.00 in0.0 mm 0.00 in0.0 mm
04:30 AM 6.1°F-14.4°C 0.2°F-17.7°C 76% Calm Calm 2.0 mph3.2 kmh 30.47 in1031.8 mb 0.00 in0.0 mm 0.00 in0.0 mm 0.00 in0.0 mm
04:15 AM 5.8°F-14.6°C -0.4°F-18.0°C 75% Calm Calm 2.0 mph3.2 kmh 30.46 in1031.5 mb 0.00 in0.0 mm 0.00 in0.0 mm 0.00 in0.0 mm
04:00 AM 5.6°F-14.7°C -0.6°F-18.1°C 75% Calm Calm 1.0 mph1.6 kmh 30.46 in1031.5 mb 0.00 in0.0 mm 0.00 in0.0 mm 0.00 in0.0 mm
03:45 AM 5.6°F-14.7°C -0.6°F-18.1°C 75% Calm Calm -- 30.45 in1031.2 mb 0.00 in0.0 mm 0.00 in0.0 mm 0.00 in0.0 mm
03:30 AM 5.8°F-14.6°C -0.7°F-18.2°C 74% Calm Calm -- 30.45 in1031.2 mb 0.00 in0.0 mm 0.00 in0.0 mm 0.00 in0.0 mm
03:15 AM 6.1°F-14.4°C -0.4°F-18.0°C 74% Calm Calm -- 30.45 in1031.2 mb 0.00 in0.0 mm 0.00 in0.0 mm 0.00 in0.0 mm
03:00 AM 6.4°F-14.2°C -0.1°F-17.8°C 74% Calm Calm -- 30.45 in1031.2 mb 0.00 in0.0 mm 0.00 in0.0 mm 0.00 in0.0 mm
02:45 AM 6.6°F-14.1°C 0.4°F-17.6°C 75% Calm Calm 2.0 mph3.2 kmh 30.44 in1030.8 mb 0.00 in0.0 mm 0.00 in0.0 mm 0.00 in0.0 mm
02:30 AM 6.7°F-14.1°C 0.2°F-17.7°C 74% Calm Calm -- 30.43 in1030.5 mb 0.00 in0.0 mm 0.00 in0.0 mm 0.00 in0.0 mm
02:15 AM 7.0°F-13.9°C 0.5°F-17.5°C 74% Calm Calm -- 30.42 in1030.1 mb 0.00 in0.0 mm 0.00 in0.0 mm 0.00 in0.0 mm
02:00 AM 7.2°F-13.8°C 0.7°F-17.4°C 74% Calm Calm -- 30.42 in1030.1 mb 0.00 in0.0 mm 0.00 in0.0 mm 0.00 in0.0 mm
01:45 AM 7.6°F-13.6°C 0.7°F-17.4°C 73% Calm Calm -- 30.41 in1029.8 mb 0.00 in0.0 mm 0.00 in0.0 mm 0.00 in0.0 mm
01:30 AM 8.0°F-13.3°C 1.1°F-17.2°C 73% Calm Calm 2.0 mph3.2 kmh 30.41 in1029.8 mb 0.00 in0.0 mm 0.00 in0.0 mm 0.00 in0.0 mm
01:15 AM 8.2°F-13.2°C 0.7°F-17.4°C 71% Calm Calm -- 30.41 in1029.8 mb 0.00 in0.0 mm 0.00 in0.0 mm 0.00 in0.0 mm
01:00 AM 8.6°F-13.0°C 0.8°F-17.3°C 70% Calm Calm -- 30.41 in1029.8 mb 0.00 in0.0 mm 0.00 in0.0 mm 0.00 in0.0 mm
12:45 AM 9.1°F-12.7°C 1.0°F-17.2°C 69% Calm Calm -- 30.40 in1029.5 mb 0.00 in0.0 mm 0.00 in0.0 mm 0.00 in0.0 mm
12:30 AM 9.6°F-12.4°C 1.5°F-16.9°C 69% Calm Calm 1.0 mph1.6 kmh 30.39 in1029.1 mb 0.00 in0.0 mm 0.00 in0.0 mm 0.00 in0.0 mm
12:15 AM 10.1°F-12.2°C 1.3°F-17.1°C 67% Calm Calm 1.0 mph1.6 kmh 30.39 in1029.1 mb 0.00 in0.0 mm 0.00 in0.0 mm 0.00 in0.0 mm
12:00 AM 10.6°F-11.9°C 1.5°F-16.9°C 66% Calm Calm -- 30.38 in1028.8 mb 0.00 in0.0 mm 0.00 in0.0 mm 0.00 in0.0 mm